Farmersville, TX (75442)

4:18 PM CST on December 10, 2016 (GMT -0600)
Farmersville | | Change Station

Elev 659 ft 33.17 °N, 96.36 °W | Updated 1 second ago

Overcast
Overcast
47.3 °F
Feels Like 47 °F
N
2.9
Wind Variable Wind from SE
Gusts 4.9 mph

Today
High -- | Low -- °F
--% Chance of Precip.
Yesterday
High -- | Low -- °F
Precip. -- in
Pressure 30.30 in
Visibility 10.0 miles
Clouds Few 2500 ft
Scattered Clouds 3000 ft
Overcast 3500 ft
Windchill 47 °F
Dew Point 9 °F
Humidity 21%
Rainfall 0.00 in
Snow Depth Not available.
7:18 AM 5:18 PM
Waxing Gibbous, 86% visible
METAR KTKI 102153Z 17015KT 10SM FEW025 SCT030 OVC035 08/M01 A3026 RMK AO2 SLP258 T00831006
Pressure 30.30 in
Visibility 10.0 miles
Clouds Few 2500 ft
Scattered Clouds 3000 ft
Overcast 3500 ft
Windchill 47 °F
Dew Point 9 °F
Humidity 21%
Rainfall 0.00 in
Snow Depth Not available.
7:18 AM 5:18 PM
Waxing Gibbous, 86% visible
METAR KTKI 102153Z 17015KT 10SM FEW025 SCT030 OVC035 08/M01 A3026 RMK AO2 SLP258 T00831006

10-Day Weather Forecast

Almanac

Astronomy

Dec. 10, 2016 Rise Set
Actual Time
Civil Twilight
Nautical Twilight
Astronomical Twilight
Moon
Length of Visible Light
Length of Day
Tomorrow will be .
, % of the Moon is Illuminated

Today's Extremes

State Highs State Lows

Community

WunderPhotos

Upload Photos

1,956,672 photos uploaded!

WunderBlog® & News

Nearby

Air Quality

  Air Quality AQ Index Pollutant
Not available.

Snow Depth

Station Depth Elevation

Earthquake Activity

City Distance Mag. Time & Date
Minimum magnitude displayed is 2.5.

Coastal Water Temperatures

Place Temperature

Stations

Nearby Weather Stations

Station Location Temp. Windchill Dew Point Humidity Wind Precip. Elev Updated Type
                   

Watches & Warnings

There are currently no watches in effect.